Terminal Aerodrome Forecast
Issued by NWS

Home | Current Version | Previous Version | Text Only | Print | Product List | Glossary On
Versions: 1 2 3 4 5 6 7 8 9 10 11 12 13 14 15 16 17 18 19
000
FTUS44 KEPZ 211700
TAFDMN
TAF
KDMN 211722Z 2118/2218 10008KT P6SM BKN050 BKN100
     FM212100 10008KT P6SM VCSH BKN040 BKN100
     FM220300 07005KT P6SM SCT040 SCT200=

USA.gov is the U.S. government's official web portal to all federal, state and local government web resources and services.